createdAt,value
2022-08-14T00:03:29.537Z,18.60
2022-08-14T00:08:42.033Z,18.60
2022-08-14T00:13:52.765Z,18.60
2022-08-14T00:19:06.152Z,18.60
2022-08-14T00:24:28.161Z,18.50
2022-08-14T00:29:40.115Z,18.40
2022-08-14T00:34:46.284Z,18.40
2022-08-14T00:39:51.283Z,18.20
2022-08-14T00:44:56.683Z,18.00
2022-08-14T00:50:00.064Z,17.80
2022-08-14T00:55:03.733Z,17.70
2022-08-14T01:00:34.502Z,17.70
2022-08-14T01:05:50.640Z,17.70
2022-08-14T01:10:56.581Z,17.70
2022-08-14T01:16:05.317Z,17.70
2022-08-14T01:21:13.229Z,17.60
2022-08-14T01:26:23.482Z,17.80
2022-08-14T01:31:40.807Z,17.90
2022-08-14T01:36:44.094Z,17.90
2022-08-14T01:41:56.303Z,17.80
2022-08-14T01:47:05.850Z,17.80
2022-08-14T01:52:13.421Z,17.70
2022-08-14T01:58:00.553Z,17.60
2022-08-14T02:03:02.077Z,17.50
2022-08-14T02:08:09.861Z,17.50
2022-08-14T02:13:16.246Z,17.40
2022-08-14T02:18:19.783Z,17.50
2022-08-14T02:23:30.513Z,17.30
2022-08-14T02:28:58.554Z,16.90
2022-08-14T02:34:20.021Z,17.20
2022-08-14T02:39:25.952Z,17.20
2022-08-14T02:44:39.725Z,17.10
2022-08-14T02:49:43.387Z,17.00
2022-08-14T02:54:47.017Z,16.80
2022-08-14T02:59:52.847Z,16.80
2022-08-14T03:04:56.179Z,16.80
2022-08-14T03:10:28.096Z,16.90
2022-08-14T03:15:25.759Z,16.80
2022-08-14T03:20:30.918Z,16.70
2022-08-14T03:25:37.527Z,16.70
2022-08-14T03:30:42.850Z,16.70
2022-08-14T03:36:07.603Z,16.70
2022-08-14T03:41:14.380Z,16.70
2022-08-14T03:46:51.952Z,16.50
2022-08-14T03:51:42.725Z,16.40
2022-08-14T03:56:46.742Z,16.40
2022-08-14T04:02:01.732Z,16.30
2022-08-14T04:07:05.604Z,16.30
2022-08-14T04:12:13.481Z,16.20
2022-08-14T04:17:18.422Z,16.20
2022-08-14T04:22:22.235Z,16.10
2022-08-14T04:27:27.197Z,16.10
2022-08-14T04:33:01.606Z,16.00
2022-08-14T04:38:36.159Z,16.10
2022-08-14T04:43:39.530Z,16.50
2022-08-14T04:48:51.346Z,16.50
2022-08-14T04:54:03.323Z,16.60
2022-08-14T04:59:10.543Z,16.70
2022-08-14T05:04:16.269Z,16.90
2022-08-14T05:09:24.239Z,17.00
2022-08-14T05:14:45.465Z,17.20
2022-08-14T05:21:04.781Z,17.50
2022-08-14T05:25:15.100Z,17.80
2022-08-14T05:30:19.725Z,17.80
2022-08-14T05:35:24.454Z,18.10
2022-08-14T05:40:28.192Z,18.70
2022-08-14T05:45:31.551Z,19.50
2022-08-14T05:50:39.269Z,20.20
2022-08-14T05:55:45.436Z,21.20
2022-08-14T06:00:49.853Z,21.70
2022-08-14T06:05:56.206Z,21.20
2022-08-14T06:11:03.656Z,22.30
2022-08-14T06:16:08.140Z,22.80
2022-08-14T06:21:15.843Z,22.60
2022-08-14T06:26:22.148Z,20.70
2022-08-14T06:31:26.004Z,19.90
2022-08-14T06:36:30.755Z,20.30
2022-08-14T06:41:56.689Z,20.80
2022-08-14T06:46:58.687Z,20.40
2022-08-14T06:52:03.418Z,20.70
2022-08-14T06:57:08.833Z,21.00
2022-08-14T07:02:43.755Z,21.10
2022-08-14T07:07:48.660Z,22.00
2022-08-14T07:13:01.941Z,23.30
2022-08-14T07:18:08.891Z,22.80
2022-08-14T07:23:20.576Z,22.40
2022-08-14T07:28:25.922Z,24.60
2022-08-14T07:33:31.626Z,25.70
2022-08-14T07:38:38.198Z,26.40
2022-08-14T07:43:42.268Z,24.90
2022-08-14T07:48:45.961Z,24.50
2022-08-14T07:53:56.838Z,24.30
2022-08-14T07:59:00.811Z,23.70
2022-08-14T08:04:16.419Z,25.90
2022-08-14T08:09:32.157Z,27.50
2022-08-14T08:14:55.511Z,28.00
2022-08-14T08:19:59.679Z,28.20
2022-08-14T08:25:08.528Z,29.20
2022-08-14T08:30:17.299Z,28.90
2022-08-14T08:35:23.545Z,29.20
2022-08-14T08:40:31.435Z,30.00
2022-08-14T08:45:37.469Z,30.30
2022-08-14T08:55:46.727Z,29.40
2022-08-14T09:00:54.194Z,30.60
2022-08-14T09:06:01.365Z,30.20
2022-08-14T09:11:18.958Z,33.90
2022-08-14T09:16:26.253Z,31.60
2022-08-14T09:21:31.097Z,31.80
2022-08-14T09:26:37.356Z,31.90
2022-08-14T09:31:53.169Z,29.60
2022-08-14T09:37:24.697Z,28.20
2022-08-14T09:42:50.207Z,30.50
2022-08-14T09:47:56.768Z,29.40
2022-08-14T09:53:02.841Z,30.50
2022-08-14T09:58:19.250Z,30.90
2022-08-14T10:03:33.457Z,32.20
2022-08-14T10:08:51.027Z,32.80
2022-08-14T10:14:00.125Z,32.40
2022-08-14T10:19:07.189Z,33.20
2022-08-14T10:24:17.559Z,33.90
2022-08-14T10:29:32.987Z,32.50
2022-08-14T10:34:40.878Z,32.30
2022-08-14T10:40:01.263Z,33.80
2022-08-14T10:45:21.956Z,32.70
2022-08-14T10:50:32.171Z,31.40
2022-08-14T10:55:45.397Z,32.40
2022-08-14T11:00:58.732Z,32.00
2022-08-14T11:06:14.612Z,32.70
2022-08-14T11:11:19.660Z,33.50
2022-08-14T11:16:29.620Z,33.60
2022-08-14T11:21:34.881Z,34.00
2022-08-14T11:26:45.282Z,33.50
2022-08-14T11:31:52.150Z,33.30
2022-08-14T11:37:09.612Z,33.50
2022-08-14T11:42:56.702Z,33.90
2022-08-14T11:48:13.260Z,34.90
2022-08-14T11:53:22.151Z,34.60
2022-08-14T11:58:31.247Z,34.80
2022-08-14T12:03:51.788Z,33.40
2022-08-14T12:09:00.765Z,33.10
2022-08-14T12:14:29.317Z,32.40
2022-08-14T12:19:53.689Z,31.40
2022-08-14T12:24:57.739Z,32.20
2022-08-14T12:30:01.356Z,32.70
2022-08-14T12:35:08.288Z,32.30
2022-08-14T12:40:19.474Z,33.20
2022-08-14T12:45:33.290Z,33.10
2022-08-14T12:50:40.404Z,33.00
2022-08-14T12:56:18.731Z,32.60
2022-08-14T13:01:17.230Z,32.40
2022-08-14T13:06:28.950Z,32.10
2022-08-14T13:11:41.395Z,31.50
2022-08-14T13:16:50.468Z,30.80
2022-08-14T13:22:04.964Z,30.80
2022-08-14T13:27:11.114Z,30.40
2022-08-14T13:32:14.904Z,30.50
2022-08-14T13:37:20.220Z,30.80
2022-08-14T13:42:30.812Z,33.20
2022-08-14T13:47:35.500Z,31.10
2022-08-14T13:52:52.614Z,30.50
2022-08-14T13:58:03.628Z,29.90
2022-08-14T14:03:09.222Z,30.40
2022-08-14T14:08:42.944Z,30.90
2022-08-14T14:13:42.072Z,30.40
2022-08-14T14:18:52.370Z,29.10
2022-08-14T14:23:58.096Z,31.10
2022-08-14T14:29:04.614Z,33.40
2022-08-14T14:34:29.348Z,34.50
2022-08-14T14:40:50.207Z,33.90
2022-08-14T14:45:06.375Z,34.30
2022-08-14T14:50:11.321Z,35.10
2022-08-14T14:55:18.706Z,36.30
2022-08-14T15:00:22.751Z,36.20
2022-08-14T15:05:28.330Z,33.20
2022-08-14T15:10:37.847Z,37.10
2022-08-14T15:15:44.272Z,36.90
2022-08-14T15:20:48.079Z,36.90
2022-08-14T15:25:56.328Z,37.30
2022-08-14T15:31:00.177Z,37.00
2022-08-14T15:36:04.549Z,37.40
2022-08-14T15:41:41.221Z,38.00
2022-08-14T15:46:45.658Z,37.70
2022-08-14T15:51:50.977Z,37.60
2022-08-14T15:57:01.060Z,35.90
2022-08-14T16:02:08.102Z,35.50
2022-08-14T16:07:15.118Z,34.80
2022-08-14T16:12:19.891Z,35.70
2022-08-14T16:17:43.883Z,36.10
2022-08-14T16:22:58.778Z,36.10
2022-08-14T16:28:07.340Z,35.10
2022-08-14T16:33:27.948Z,36.20
2022-08-14T16:38:45.648Z,35.20
2022-08-14T16:43:59.320Z,34.20
2022-08-14T16:49:04.444Z,32.40
2022-08-14T16:54:21.061Z,30.80
2022-08-14T16:59:57.198Z,29.90
2022-08-14T17:05:17.020Z,29.50
2022-08-14T17:10:28.290Z,29.00
2022-08-14T17:15:33.886Z,28.80
2022-08-14T17:21:01.743Z,28.70
2022-08-14T17:26:00.645Z,28.50
2022-08-14T17:31:06.469Z,28.40
2022-08-14T17:36:20.859Z,28.30
2022-08-14T17:41:27.198Z,28.10
2022-08-14T17:46:43.224Z,28.00
2022-08-14T17:52:01.690Z,27.70
2022-08-14T17:57:10.665Z,27.50
2022-08-14T18:02:22.624Z,27.40
2022-08-14T18:07:59.451Z,27.30
2022-08-14T18:12:58.616Z,27.20
2022-08-14T18:18:06.179Z,26.90
2022-08-14T18:23:13.121Z,26.70
2022-08-14T18:28:51.256Z,26.50
2022-08-14T18:33:54.383Z,26.30
2022-08-14T18:39:25.708Z,26.10
2022-08-14T18:45:15.322Z,25.90
2022-08-14T18:50:27.433Z,25.70
2022-08-14T18:55:53.187Z,25.50
2022-08-14T19:00:59.915Z,25.30
2022-08-14T19:06:07.054Z,25.20
2022-08-14T19:11:43.508Z,25.10
2022-08-14T19:16:53.470Z,24.90
2022-08-14T19:21:59.029Z,24.70
2022-08-14T19:27:26.420Z,24.70
2022-08-14T19:32:41.960Z,24.60
2022-08-14T19:37:52.733Z,24.50
2022-08-14T19:42:58.305Z,24.30
2022-08-14T19:48:03.394Z,24.10
2022-08-14T19:53:12.070Z,24.00
2022-08-14T19:58:30.022Z,24.00
2022-08-14T20:04:00.009Z,23.80
2022-08-14T20:11:06.965Z,23.70
2022-08-14T20:14:31.323Z,23.70
2022-08-14T20:19:37.985Z,23.50
2022-08-14T20:24:47.319Z,23.30
2022-08-14T20:30:33.917Z,23.10
2022-08-14T20:35:44.248Z,23.00
2022-08-14T20:40:52.283Z,22.80
2022-08-14T20:45:57.536Z,22.50
2022-08-14T20:51:21.136Z,22.50
2022-08-14T20:56:30.560Z,22.60
2022-08-14T21:01:38.572Z,22.60
2022-08-14T21:07:23.307Z,22.30
2022-08-14T21:12:06.229Z,22.10
2022-08-14T21:17:31.049Z,22.20
2022-08-14T21:22:34.483Z,22.00
2022-08-14T21:27:39.985Z,21.80
2022-08-14T21:33:02.461Z,21.90
2022-08-14T21:38:09.546Z,21.90
2022-08-14T21:43:23.785Z,21.90
2022-08-14T21:48:31.513Z,22.10
2022-08-14T21:53:36.823Z,22.10
2022-08-14T21:59:04.517Z,22.00
2022-08-14T22:04:32.878Z,22.10
2022-08-14T22:09:36.386Z,22.00
2022-08-14T22:14:43.306Z,21.90
2022-08-14T22:19:54.831Z,21.90
2022-08-14T22:25:01.067Z,21.90
2022-08-14T22:30:09.863Z,21.70
2022-08-14T22:35:17.413Z,21.70
2022-08-14T22:41:00.368Z,21.60
2022-08-14T22:45:55.122Z,21.40
2022-08-14T22:51:01.097Z,21.30
2022-08-14T22:56:05.122Z,21.20
2022-08-14T23:01:55.776Z,21.10
2022-08-14T23:07:03.402Z,21.00
2022-08-14T23:12:27.785Z,20.80
2022-08-14T23:17:40.451Z,20.70
2022-08-14T23:22:47.115Z,17.60
2022-08-14T23:28:03.943Z,20.40
2022-08-14T23:33:14.396Z,20.50
2022-08-14T23:38:30.582Z,20.40
2022-08-14T23:43:35.091Z,20.40
2022-08-14T23:48:40.421Z,20.30
2022-08-14T23:53:53.356Z,20.10
2022-08-14T23:58:57.432Z,19.90
